Terminal Aerodrome Forecast
Issued by NWS

Home | Current Version | Previous Version | Text Only | Print | Product List | Glossary Off
Versions: 1 2 3 4 5 6 7 8 9 10 11 12 13 14 15 16

000
FTUS43 KICT 180712 AAA
TAFHUT
TAF AMD
KHUT 180712Z 1807/1906 18006KT P6SM VCTS BKN080CB
      TEMPO 1807/1809 32025G40KT 2SM +TSRA OVC060CB
     FM181300 19007KT P6SM FEW025 BKN250
     FM181500 20012KT P6SM FEW250
     FM182000 24010KT P6SM SCT070
     FM190200 35010KT P6SM SCT250=

USA.gov is the U.S. government's official web portal to all federal, state and local government web resources and services.